sensor_id;sensor_type;location;lat;lon;timestamp;P1;durP1;ratioP1;P2;durP2;ratioP2
75261;SDS011;63859;51.064;4.580;2023-01-19T00:01:19;22.60;;;13.37;;
75261;SDS011;63859;51.064;4.580;2023-01-19T00:03:44;22.47;;;11.87;;
75261;SDS011;63859;51.064;4.580;2023-01-19T00:06:10;28.13;;;12.90;;
75261;SDS011;63859;51.064;4.580;2023-01-19T00:08:36;26.50;;;13.30;;
75261;SDS011;63859;51.064;4.580;2023-01-19T00:11:03;19.97;;;13.03;;
75261;SDS011;63859;51.064;4.580;2023-01-19T00:13:29;27.07;;;14.13;;
75261;SDS011;63859;51.064;4.580;2023-01-19T00:15:55;22.93;;;13.27;;
75261;SDS011;63859;51.064;4.580;2023-01-19T00:18:20;21.73;;;12.40;;
75261;SDS011;63859;51.064;4.580;2023-01-19T00:20:46;23.70;;;13.40;;
75261;SDS011;63859;51.064;4.580;2023-01-19T00:23:12;22.93;;;12.77;;
75261;SDS011;63859;51.064;4.580;2023-01-19T00:25:39;21.77;;;13.33;;
75261;SDS011;63859;51.064;4.580;2023-01-19T00:28:09;22.50;;;13.30;;
75261;SDS011;63859;51.064;4.580;2023-01-19T00:30:36;20.83;;;12.27;;
75261;SDS011;63859;51.064;4.580;2023-01-19T00:33:03;20.30;;;12.30;;
75261;SDS011;63859;51.064;4.580;2023-01-19T00:35:28;23.93;;;11.50;;
75261;SDS011;63859;51.064;4.580;2023-01-19T00:37:57;23.43;;;12.40;;
75261;SDS011;63859;51.064;4.580;2023-01-19T00:40:23;22.57;;;12.23;;
75261;SDS011;63859;51.064;4.580;2023-01-19T00:42:49;18.87;;;12.03;;
75261;SDS011;63859;51.064;4.580;2023-01-19T00:45:15;23.50;;;12.33;;
75261;SDS011;63859;51.064;4.580;2023-01-19T00:47:43;19.80;;;11.83;;
75261;SDS011;63859;51.064;4.580;2023-01-19T00:50:10;23.27;;;12.37;;
75261;SDS011;63859;51.064;4.580;2023-01-19T00:52:38;21.83;;;10.80;;
75261;SDS011;63859;51.064;4.580;2023-01-19T00:55:05;21.00;;;11.87;;
75261;SDS011;63859;51.064;4.580;2023-01-19T00:57:32;22.37;;;12.30;;
75261;SDS011;63859;51.064;4.580;2023-01-19T00:59:58;25.50;;;13.00;;
75261;SDS011;63859;51.064;4.580;2023-01-19T01:02:23;19.83;;;11.13;;
75261;SDS011;63859;51.064;4.580;2023-01-19T01:04:49;19.97;;;11.40;;
75261;SDS011;63859;51.064;4.580;2023-01-19T01:07:19;22.57;;;11.87;;
75261;SDS011;63859;51.064;4.580;2023-01-19T01:09:45;21.27;;;10.87;;
75261;SDS011;63859;51.064;4.580;2023-01-19T01:12:11;18.10;;;11.27;;
75261;SDS011;63859;51.064;4.580;2023-01-19T01:14:37;20.07;;;11.20;;
75261;SDS011;63859;51.064;4.580;2023-01-19T01:17:02;22.27;;;12.03;;
75261;SDS011;63859;51.064;4.580;2023-01-19T01:19:28;20.93;;;11.53;;
75261;SDS011;63859;51.064;4.580;2023-01-19T01:21:54;20.77;;;11.37;;
75261;SDS011;63859;51.064;4.580;2023-01-19T01:24:20;19.27;;;11.60;;
75261;SDS011;63859;51.064;4.580;2023-01-19T01:26:45;20.50;;;11.53;;
75261;SDS011;63859;51.064;4.580;2023-01-19T01:29:11;23.07;;;11.47;;
75261;SDS011;63859;51.064;4.580;2023-01-19T01:31:37;17.77;;;11.40;;
75261;SDS011;63859;51.064;4.580;2023-01-19T01:34:02;17.70;;;10.67;;
75261;SDS011;63859;51.064;4.580;2023-01-19T01:36:28;21.13;;;11.20;;
75261;SDS011;63859;51.064;4.580;2023-01-19T01:38:57;17.03;;;10.57;;
75261;SDS011;63859;51.064;4.580;2023-01-19T01:41:23;21.50;;;10.63;;
75261;SDS011;63859;51.064;4.580;2023-01-19T01:43:51;20.40;;;10.17;;
75261;SDS011;63859;51.064;4.580;2023-01-19T01:46:20;24.43;;;11.93;;
75261;SDS011;63859;51.064;4.580;2023-01-19T01:48:51;17.83;;;10.33;;
75261;SDS011;63859;51.064;4.580;2023-01-19T01:51:30;21.77;;;10.37;;
75261;SDS011;63859;51.064;4.580;2023-01-19T01:54:22;19.90;;;10.13;;
75261;SDS011;63859;51.064;4.580;2023-01-19T01:56:51;21.50;;;10.30;;
75261;SDS011;63859;51.064;4.580;2023-01-19T01:59:26;18.23;;;10.13;;
75261;SDS011;63859;51.064;4.580;2023-01-19T02:02:18;20.50;;;10.77;;
75261;SDS011;63859;51.064;4.580;2023-01-19T02:05:12;18.93;;;11.00;;
75261;SDS011;63859;51.064;4.580;2023-01-19T02:07:43;18.00;;;10.60;;
75261;SDS011;63859;51.064;4.580;2023-01-19T02:10:47;25.20;;;11.03;;
75261;SDS011;63859;51.064;4.580;2023-01-19T02:13:33;24.93;;;10.60;;
75261;SDS011;63859;51.064;4.580;2023-01-19T02:16:02;19.17;;;10.73;;
75261;SDS011;63859;51.064;4.580;2023-01-19T02:18:31;23.43;;;10.13;;
75261;SDS011;63859;51.064;4.580;2023-01-19T02:21:00;20.30;;;10.90;;
75261;SDS011;63859;51.064;4.580;2023-01-19T02:23:45;25.90;;;10.63;;
75261;SDS011;63859;51.064;4.580;2023-01-19T02:26:17;20.97;;;9.97;;
75261;SDS011;63859;51.064;4.580;2023-01-19T02:28:51;23.23;;;10.77;;
75261;SDS011;63859;51.064;4.580;2023-01-19T02:31:22;19.07;;;10.20;;
75261;SDS011;63859;51.064;4.580;2023-01-19T02:33:48;26.43;;;10.17;;
75261;SDS011;63859;51.064;4.580;2023-01-19T02:36:15;29.73;;;11.33;;
75261;SDS011;63859;51.064;4.580;2023-01-19T02:38:45;20.20;;;10.60;;
75261;SDS011;63859;51.064;4.580;2023-01-19T02:41:14;27.90;;;10.67;;
75261;SDS011;63859;51.064;4.580;2023-01-19T02:43:43;18.20;;;9.83;;
75261;SDS011;63859;51.064;4.580;2023-01-19T02:46:12;18.83;;;9.70;;
75261;SDS011;63859;51.064;4.580;2023-01-19T02:48:39;18.43;;;9.87;;
75261;SDS011;63859;51.064;4.580;2023-01-19T02:51:10;17.07;;;9.07;;
75261;SDS011;63859;51.064;4.580;2023-01-19T02:59:05;22.50;;;10.20;;
75261;SDS011;63859;51.064;4.580;2023-01-19T03:01:54;21.80;;;10.07;;
75261;SDS011;63859;51.064;4.580;2023-01-19T03:05:18;20.97;;;10.00;;
75261;SDS011;63859;51.064;4.580;2023-01-19T03:12:40;20.57;;;10.57;;
75261;SDS011;63859;51.064;4.580;2023-01-19T03:15:13;16.73;;;9.90;;
75261;SDS011;63859;51.064;4.580;2023-01-19T03:17:47;23.07;;;11.50;;
75261;SDS011;63859;51.064;4.580;2023-01-19T03:20:14;22.27;;;11.07;;
75261;SDS011;63859;51.064;4.580;2023-01-19T03:22:46;26.53;;;12.57;;
75261;SDS011;63859;51.064;4.580;2023-01-19T03:25:14;31.47;;;12.47;;
75261;SDS011;63859;51.064;4.580;2023-01-19T03:27:43;25.53;;;12.37;;
75261;SDS011;63859;51.064;4.580;2023-01-19T03:30:14;27.57;;;12.53;;
75261;SDS011;63859;51.064;4.580;2023-01-19T03:32:48;27.17;;;12.80;;
75261;SDS011;63859;51.064;4.580;2023-01-19T03:35:20;26.27;;;13.07;;
75261;SDS011;63859;51.064;4.580;2023-01-19T03:37:47;23.93;;;13.67;;
75261;SDS011;63859;51.064;4.580;2023-01-19T03:40:16;30.87;;;13.80;;
75261;SDS011;63859;51.064;4.580;2023-01-19T03:42:42;26.73;;;12.37;;
75261;SDS011;63859;51.064;4.580;2023-01-19T03:45:09;26.80;;;13.20;;
75261;SDS011;63859;51.064;4.580;2023-01-19T03:47:36;27.13;;;13.20;;
75261;SDS011;63859;51.064;4.580;2023-01-19T03:50:03;28.83;;;13.17;;
75261;SDS011;63859;51.064;4.580;2023-01-19T03:52:34;23.83;;;11.87;;
75261;SDS011;63859;51.064;4.580;2023-01-19T03:55:00;28.83;;;13.57;;
75261;SDS011;63859;51.064;4.580;2023-01-19T03:57:26;25.33;;;13.17;;
75261;SDS011;63859;51.064;4.580;2023-01-19T03:59:52;28.77;;;13.13;;
75261;SDS011;63859;51.064;4.580;2023-01-19T04:02:18;28.27;;;13.20;;
75261;SDS011;63859;51.064;4.580;2023-01-19T04:04:43;26.77;;;13.80;;
75261;SDS011;63859;51.064;4.580;2023-01-19T04:07:09;28.93;;;13.53;;
75261;SDS011;63859;51.064;4.580;2023-01-19T04:09:35;27.13;;;14.03;;
75261;SDS011;63859;51.064;4.580;2023-01-19T04:12:01;26.03;;;12.57;;
75261;SDS011;63859;51.064;4.580;2023-01-19T04:14:27;24.97;;;13.13;;
75261;SDS011;63859;51.064;4.580;2023-01-19T04:16:53;32.70;;;14.20;;
75261;SDS011;63859;51.064;4.580;2023-01-19T04:19:19;31.90;;;14.27;;
75261;SDS011;63859;51.064;4.580;2023-01-19T04:21:46;28.57;;;14.03;;
75261;SDS011;63859;51.064;4.580;2023-01-19T04:24:13;29.20;;;14.87;;
75261;SDS011;63859;51.064;4.580;2023-01-19T04:26:39;26.03;;;13.50;;
75261;SDS011;63859;51.064;4.580;2023-01-19T04:29:04;30.47;;;13.83;;
75261;SDS011;63859;51.064;4.580;2023-01-19T04:31:30;23.93;;;13.67;;
75261;SDS011;63859;51.064;4.580;2023-01-19T04:33:56;32.23;;;13.93;;
75261;SDS011;63859;51.064;4.580;2023-01-19T04:36:21;27.13;;;14.17;;
75261;SDS011;63859;51.064;4.580;2023-01-19T04:38:47;30.13;;;14.73;;
75261;SDS011;63859;51.064;4.580;2023-01-19T04:41:13;28.73;;;13.93;;
75261;SDS011;63859;51.064;4.580;2023-01-19T04:43:38;28.60;;;14.53;;
75261;SDS011;63859;51.064;4.580;2023-01-19T04:46:04;26.33;;;13.97;;
75261;SDS011;63859;51.064;4.580;2023-01-19T04:48:31;32.53;;;14.50;;
75261;SDS011;63859;51.064;4.580;2023-01-19T04:50:57;31.03;;;15.37;;
75261;SDS011;63859;51.064;4.580;2023-01-19T04:53:22;34.93;;;14.67;;
75261;SDS011;63859;51.064;4.580;2023-01-19T04:55:51;37.00;;;15.60;;
75261;SDS011;63859;51.064;4.580;2023-01-19T04:58:18;31.93;;;14.83;;
75261;SDS011;63859;51.064;4.580;2023-01-19T05:00:44;28.90;;;14.93;;
75261;SDS011;63859;51.064;4.580;2023-01-19T05:03:10;32.07;;;15.60;;
75261;SDS011;63859;51.064;4.580;2023-01-19T05:05:35;28.47;;;15.27;;
75261;SDS011;63859;51.064;4.580;2023-01-19T05:08:01;28.57;;;15.67;;
75261;SDS011;63859;51.064;4.580;2023-01-19T05:10:27;31.47;;;15.20;;
75261;SDS011;63859;51.064;4.580;2023-01-19T05:12:52;22.70;;;11.80;;
75261;SDS011;63859;51.064;4.580;2023-01-19T05:15:18;31.97;;;14.20;;
75261;SDS011;63859;51.064;4.580;2023-01-19T05:17:43;27.17;;;14.60;;
75261;SDS011;63859;51.064;4.580;2023-01-19T05:20:10;30.27;;;13.83;;
75261;SDS011;63859;51.064;4.580;2023-01-19T05:22:36;28.07;;;14.07;;
75261;SDS011;63859;51.064;4.580;2023-01-19T05:25:03;27.33;;;13.97;;
75261;SDS011;63859;51.064;4.580;2023-01-19T05:27:29;32.67;;;14.00;;
75261;SDS011;63859;51.064;4.580;2023-01-19T05:29:55;33.77;;;15.20;;
75261;SDS011;63859;51.064;4.580;2023-01-19T05:32:21;33.23;;;14.53;;
75261;SDS011;63859;51.064;4.580;2023-01-19T05:34:46;31.80;;;14.17;;
75261;SDS011;63859;51.064;4.580;2023-01-19T05:37:12;27.83;;;14.07;;
75261;SDS011;63859;51.064;4.580;2023-01-19T05:39:38;34.53;;;14.43;;
75261;SDS011;63859;51.064;4.580;2023-01-19T05:42:03;30.27;;;13.90;;
75261;SDS011;63859;51.064;4.580;2023-01-19T05:44:29;30.10;;;15.03;;
75261;SDS011;63859;51.064;4.580;2023-01-19T05:46:54;33.47;;;15.10;;
75261;SDS011;63859;51.064;4.580;2023-01-19T05:49:20;31.53;;;15.27;;
75261;SDS011;63859;51.064;4.580;2023-01-19T05:51:46;39.47;;;15.70;;
75261;SDS011;63859;51.064;4.580;2023-01-19T05:54:13;41.57;;;15.80;;
75261;SDS011;63859;51.064;4.580;2023-01-19T05:56:42;36.43;;;15.00;;
75261;SDS011;63859;51.064;4.580;2023-01-19T05:59:07;34.53;;;16.77;;
75261;SDS011;63859;51.064;4.580;2023-01-19T06:01:33;40.07;;;16.17;;
75261;SDS011;63859;51.064;4.580;2023-01-19T06:04:01;35.80;;;16.87;;
75261;SDS011;63859;51.064;4.580;2023-01-19T06:06:26;37.40;;;17.23;;
75261;SDS011;63859;51.064;4.580;2023-01-19T06:08:52;44.53;;;17.13;;
75261;SDS011;63859;51.064;4.580;2023-01-19T06:11:18;35.43;;;15.93;;
75261;SDS011;63859;51.064;4.580;2023-01-19T06:13:44;38.87;;;16.50;;
75261;SDS011;63859;51.064;4.580;2023-01-19T06:16:11;38.10;;;17.83;;
75261;SDS011;63859;51.064;4.580;2023-01-19T06:18:38;43.13;;;18.07;;
75261;SDS011;63859;51.064;4.580;2023-01-19T06:21:07;37.43;;;17.77;;
75261;SDS011;63859;51.064;4.580;2023-01-19T06:23:33;37.57;;;16.43;;
75261;SDS011;63859;51.064;4.580;2023-01-19T06:25:59;47.40;;;17.70;;
75261;SDS011;63859;51.064;4.580;2023-01-19T06:28:25;40.30;;;17.83;;
75261;SDS011;63859;51.064;4.580;2023-01-19T06:30:51;40.53;;;17.17;;
75261;SDS011;63859;51.064;4.580;2023-01-19T06:33:18;42.97;;;17.83;;
75261;SDS011;63859;51.064;4.580;2023-01-19T06:35:44;36.07;;;17.57;;
75261;SDS011;63859;51.064;4.580;2023-01-19T06:38:12;43.70;;;18.10;;
75261;SDS011;63859;51.064;4.580;2023-01-19T06:40:38;37.23;;;16.70;;
75261;SDS011;63859;51.064;4.580;2023-01-19T06:43:04;43.07;;;18.70;;
75261;SDS011;63859;51.064;4.580;2023-01-19T06:45:30;47.97;;;19.53;;
75261;SDS011;63859;51.064;4.580;2023-01-19T06:47:56;43.70;;;18.27;;
75261;SDS011;63859;51.064;4.580;2023-01-19T06:50:22;44.87;;;18.20;;
75261;SDS011;63859;51.064;4.580;2023-01-19T06:52:48;40.57;;;17.90;;
75261;SDS011;63859;51.064;4.580;2023-01-19T06:55:14;44.00;;;19.70;;
75261;SDS011;63859;51.064;4.580;2023-01-19T06:57:40;41.77;;;19.47;;
75261;SDS011;63859;51.064;4.580;2023-01-19T07:00:06;36.40;;;15.37;;
75261;SDS011;63859;51.064;4.580;2023-01-19T07:02:36;43.00;;;18.00;;
75261;SDS011;63859;51.064;4.580;2023-01-19T07:05:06;45.77;;;16.90;;
75261;SDS011;63859;51.064;4.580;2023-01-19T07:07:33;46.23;;;17.67;;
75261;SDS011;63859;51.064;4.580;2023-01-19T07:09:59;45.13;;;18.10;;
75261;SDS011;63859;51.064;4.580;2023-01-19T07:12:24;45.67;;;16.93;;
75261;SDS011;63859;51.064;4.580;2023-01-19T07:14:50;41.67;;;17.50;;
75261;SDS011;63859;51.064;4.580;2023-01-19T07:17:16;40.90;;;16.50;;
75261;SDS011;63859;51.064;4.580;2023-01-19T07:19:43;42.90;;;18.37;;
75261;SDS011;63859;51.064;4.580;2023-01-19T07:22:09;40.57;;;17.47;;
75261;SDS011;63859;51.064;4.580;2023-01-19T07:24:34;42.57;;;17.23;;
75261;SDS011;63859;51.064;4.580;2023-01-19T07:27:02;38.27;;;18.33;;
75261;SDS011;63859;51.064;4.580;2023-01-19T07:29:28;38.60;;;16.87;;
75261;SDS011;63859;51.064;4.580;2023-01-19T07:31:54;34.47;;;14.70;;
75261;SDS011;63859;51.064;4.580;2023-01-19T07:34:19;38.80;;;18.33;;
75261;SDS011;63859;51.064;4.580;2023-01-19T07:36:46;41.67;;;16.33;;
75261;SDS011;63859;51.064;4.580;2023-01-19T07:39:12;43.13;;;17.17;;
75261;SDS011;63859;51.064;4.580;2023-01-19T07:41:38;43.23;;;16.80;;
75261;SDS011;63859;51.064;4.580;2023-01-19T07:44:03;41.43;;;17.70;;
75261;SDS011;63859;51.064;4.580;2023-01-19T07:46:29;41.33;;;17.63;;
75261;SDS011;63859;51.064;4.580;2023-01-19T07:48:55;40.43;;;17.27;;
75261;SDS011;63859;51.064;4.580;2023-01-19T07:51:20;38.80;;;16.33;;
75261;SDS011;63859;51.064;4.580;2023-01-19T07:53:48;35.97;;;16.57;;
75261;SDS011;63859;51.064;4.580;2023-01-19T07:56:14;42.27;;;17.23;;
75261;SDS011;63859;51.064;4.580;2023-01-19T07:58:40;30.50;;;14.83;;
75261;SDS011;63859;51.064;4.580;2023-01-19T08:01:07;41.57;;;17.17;;
75261;SDS011;63859;51.064;4.580;2023-01-19T08:03:33;41.90;;;17.33;;
75261;SDS011;63859;51.064;4.580;2023-01-19T08:05:59;42.20;;;16.27;;
75261;SDS011;63859;51.064;4.580;2023-01-19T08:08:28;42.33;;;16.07;;
75261;SDS011;63859;51.064;4.580;2023-01-19T08:10:54;47.03;;;16.77;;
75261;SDS011;63859;51.064;4.580;2023-01-19T08:13:19;41.20;;;17.33;;
75261;SDS011;63859;51.064;4.580;2023-01-19T08:15:48;39.33;;;18.03;;
75261;SDS011;63859;51.064;4.580;2023-01-19T08:18:15;38.90;;;17.23;;
75261;SDS011;63859;51.064;4.580;2023-01-19T08:20:42;38.53;;;17.90;;
75261;SDS011;63859;51.064;4.580;2023-01-19T08:23:07;38.93;;;17.80;;
75261;SDS011;63859;51.064;4.580;2023-01-19T08:25:37;35.57;;;17.10;;
75261;SDS011;63859;51.064;4.580;2023-01-19T08:28:06;39.20;;;17.27;;
75261;SDS011;63859;51.064;4.580;2023-01-19T08:30:32;40.67;;;17.13;;
75261;SDS011;63859;51.064;4.580;2023-01-19T08:32:59;39.73;;;17.03;;
75261;SDS011;63859;51.064;4.580;2023-01-19T08:35:35;47.33;;;18.47;;
75261;SDS011;63859;51.064;4.580;2023-01-19T08:38:02;44.10;;;16.73;;
75261;SDS011;63859;51.064;4.580;2023-01-19T08:40:29;41.70;;;17.33;;
75261;SDS011;63859;51.064;4.580;2023-01-19T08:43:03;37.07;;;17.13;;
75261;SDS011;63859;51.064;4.580;2023-01-19T08:45:32;44.83;;;18.17;;
75261;SDS011;63859;51.064;4.580;2023-01-19T08:47:59;38.73;;;16.27;;
75261;SDS011;63859;51.064;4.580;2023-01-19T08:50:29;37.00;;;16.80;;
75261;SDS011;63859;51.064;4.580;2023-01-19T08:52:56;45.47;;;16.07;;
75261;SDS011;63859;51.064;4.580;2023-01-19T08:55:22;38.27;;;17.20;;
75261;SDS011;63859;51.064;4.580;2023-01-19T08:57:55;37.00;;;15.93;;
75261;SDS011;63859;51.064;4.580;2023-01-19T09:00:23;39.33;;;16.87;;
75261;SDS011;63859;51.064;4.580;2023-01-19T09:02:51;39.30;;;17.27;;
75261;SDS011;63859;51.064;4.580;2023-01-19T09:05:17;35.87;;;16.03;;
75261;SDS011;63859;51.064;4.580;2023-01-19T09:07:43;36.37;;;14.60;;
75261;SDS011;63859;51.064;4.580;2023-01-19T09:10:12;31.10;;;13.63;;
75261;SDS011;63859;51.064;4.580;2023-01-19T09:12:38;32.43;;;15.33;;
75261;SDS011;63859;51.064;4.580;2023-01-19T09:15:03;35.63;;;16.80;;
75261;SDS011;63859;51.064;4.580;2023-01-19T09:17:30;36.97;;;17.90;;
75261;SDS011;63859;51.064;4.580;2023-01-19T09:19:55;45.37;;;17.03;;
75261;SDS011;63859;51.064;4.580;2023-01-19T09:22:21;38.40;;;16.67;;
75261;SDS011;63859;51.064;4.580;2023-01-19T09:24:46;81.37;;;20.80;;
75261;SDS011;63859;51.064;4.580;2023-01-19T09:27:12;46.07;;;17.53;;
75261;SDS011;63859;51.064;4.580;2023-01-19T09:29:38;61.00;;;19.03;;
75261;SDS011;63859;51.064;4.580;2023-01-19T09:32:03;97.23;;;22.73;;
75261;SDS011;63859;51.064;4.580;2023-01-19T09:34:29;48.43;;;18.50;;
75261;SDS011;63859;51.064;4.580;2023-01-19T09:36:55;103.17;;;24.43;;
75261;SDS011;63859;51.064;4.580;2023-01-19T09:39:21;38.97;;;17.57;;
75261;SDS011;63859;51.064;4.580;2023-01-19T09:41:53;39.07;;;17.33;;
75261;SDS011;63859;51.064;4.580;2023-01-19T09:44:28;43.40;;;18.80;;
75261;SDS011;63859;51.064;4.580;2023-01-19T09:46:57;40.77;;;17.07;;
75261;SDS011;63859;51.064;4.580;2023-01-19T09:49:32;42.77;;;16.73;;
75261;SDS011;63859;51.064;4.580;2023-01-19T09:52:01;38.13;;;16.43;;
75261;SDS011;63859;51.064;4.580;2023-01-19T09:54:28;42.00;;;17.17;;
75261;SDS011;63859;51.064;4.580;2023-01-19T09:57:11;38.73;;;17.20;;
75261;SDS011;63859;51.064;4.580;2023-01-19T09:59:38;39.73;;;17.87;;
75261;SDS011;63859;51.064;4.580;2023-01-19T10:05:00;54.47;;;17.13;;
75261;SDS011;63859;51.064;4.580;2023-01-19T10:10:41;47.03;;;19.23;;
75261;SDS011;63859;51.064;4.580;2023-01-19T10:21:47;39.50;;;17.87;;
75261;SDS011;63859;51.064;4.580;2023-01-19T10:24:27;39.40;;;18.17;;
75261;SDS011;63859;51.064;4.580;2023-01-19T10:26:54;43.53;;;19.97;;
75261;SDS011;63859;51.064;4.580;2023-01-19T10:29:21;45.13;;;19.63;;
75261;SDS011;63859;51.064;4.580;2023-01-19T10:31:58;48.27;;;20.03;;
75261;SDS011;63859;51.064;4.580;2023-01-19T10:34:32;50.03;;;20.00;;
75261;SDS011;63859;51.064;4.580;2023-01-19T10:37:01;47.67;;;19.37;;
75261;SDS011;63859;51.064;4.580;2023-01-19T10:39:29;45.73;;;20.03;;
75261;SDS011;63859;51.064;4.580;2023-01-19T10:41:55;56.17;;;20.67;;
75261;SDS011;63859;51.064;4.580;2023-01-19T10:44:28;47.63;;;21.10;;
75261;SDS011;63859;51.064;4.580;2023-01-19T10:47:00;52.87;;;20.93;;
75261;SDS011;63859;51.064;4.580;2023-01-19T10:49:27;50.60;;;19.93;;
75261;SDS011;63859;51.064;4.580;2023-01-19T10:51:56;55.50;;;21.53;;
75261;SDS011;63859;51.064;4.580;2023-01-19T10:54:23;43.83;;;18.77;;
75261;SDS011;63859;51.064;4.580;2023-01-19T10:56:58;48.07;;;19.57;;
75261;SDS011;63859;51.064;4.580;2023-01-19T10:59:31;55.23;;;20.57;;
75261;SDS011;63859;51.064;4.580;2023-01-19T11:02:16;47.63;;;20.57;;
75261;SDS011;63859;51.064;4.580;2023-01-19T11:04:42;54.63;;;19.40;;
75261;SDS011;63859;51.064;4.580;2023-01-19T11:10:10;51.63;;;20.63;;
75261;SDS011;63859;51.064;4.580;2023-01-19T11:12:39;38.37;;;15.20;;
75261;SDS011;63859;51.064;4.580;2023-01-19T11:15:11;44.00;;;17.33;;
75261;SDS011;63859;51.064;4.580;2023-01-19T11:17:40;54.23;;;19.23;;
75261;SDS011;63859;51.064;4.580;2023-01-19T11:20:17;48.70;;;20.00;;
75261;SDS011;63859;51.064;4.580;2023-01-19T11:23:34;48.93;;;18.07;;
75261;SDS011;63859;51.064;4.580;2023-01-19T11:25:47;42.67;;;18.50;;
75261;SDS011;63859;51.064;4.580;2023-01-19T11:28:25;56.93;;;19.40;;
75261;SDS011;63859;51.064;4.580;2023-01-19T11:30:57;47.77;;;18.10;;
75261;SDS011;63859;51.064;4.580;2023-01-19T11:33:32;47.30;;;19.60;;
75261;SDS011;63859;51.064;4.580;2023-01-19T11:36:00;47.33;;;18.60;;
75261;SDS011;63859;51.064;4.580;2023-01-19T11:38:29;43.47;;;18.00;;
75261;SDS011;63859;51.064;4.580;2023-01-19T11:40:56;37.20;;;14.77;;
75261;SDS011;63859;51.064;4.580;2023-01-19T11:43:23;43.53;;;17.40;;
75261;SDS011;63859;51.064;4.580;2023-01-19T11:45:53;41.83;;;15.87;;
75261;SDS011;63859;51.064;4.580;2023-01-19T11:48:26;43.10;;;16.40;;
75261;SDS011;63859;51.064;4.580;2023-01-19T11:50:58;39.70;;;14.53;;
75261;SDS011;63859;51.064;4.580;2023-01-19T11:53:29;41.57;;;16.53;;
75261;SDS011;63859;51.064;4.580;2023-01-19T11:56:08;41.17;;;17.10;;
75261;SDS011;63859;51.064;4.580;2023-01-19T11:58:36;47.53;;;17.47;;
75261;SDS011;63859;51.064;4.580;2023-01-19T12:01:06;44.27;;;15.37;;
75261;SDS011;63859;51.064;4.580;2023-01-19T12:03:50;53.53;;;19.07;;
75261;SDS011;63859;51.064;4.580;2023-01-19T12:06:28;174.90;;;31.83;;
75261;SDS011;63859;51.064;4.580;2023-01-19T12:08:59;51.70;;;16.63;;
75261;SDS011;63859;51.064;4.580;2023-01-19T12:11:42;71.53;;;19.23;;
75261;SDS011;63859;51.064;4.580;2023-01-19T12:14:14;53.60;;;19.07;;
75261;SDS011;63859;51.064;4.580;2023-01-19T12:16:48;51.27;;;17.50;;
75261;SDS011;63859;51.064;4.580;2023-01-19T12:19:17;47.10;;;18.90;;
75261;SDS011;63859;51.064;4.580;2023-01-19T12:21:49;44.87;;;17.60;;
75261;SDS011;63859;51.064;4.580;2023-01-19T12:24:26;46.60;;;19.00;;
75261;SDS011;63859;51.064;4.580;2023-01-19T12:26:57;49.23;;;19.77;;
75261;SDS011;63859;51.064;4.580;2023-01-19T12:29:30;47.40;;;18.70;;
75261;SDS011;63859;51.064;4.580;2023-01-19T12:34:42;57.67;;;19.90;;
75261;SDS011;63859;51.064;4.580;2023-01-19T12:39:57;53.43;;;18.90;;
75261;SDS011;63859;51.064;4.580;2023-01-19T12:42:25;40.77;;;15.17;;
75261;SDS011;63859;51.064;4.580;2023-01-19T12:45:07;34.77;;;16.10;;
75261;SDS011;63859;51.064;4.580;2023-01-19T12:47:40;37.93;;;16.33;;
75261;SDS011;63859;51.064;4.580;2023-01-19T12:50:15;46.30;;;17.77;;
75261;SDS011;63859;51.064;4.580;2023-01-19T12:52:46;43.77;;;16.50;;
75261;SDS011;63859;51.064;4.580;2023-01-19T12:55:23;39.90;;;17.50;;
75261;SDS011;63859;51.064;4.580;2023-01-19T13:00:37;41.70;;;18.23;;
75261;SDS011;63859;51.064;4.580;2023-01-19T13:13:30;43.07;;;16.77;;
75261;SDS011;63859;51.064;4.580;2023-01-19T13:16:43;38.93;;;17.00;;
75261;SDS011;63859;51.064;4.580;2023-01-19T13:18:50;51.23;;;18.03;;
75261;SDS011;63859;51.064;4.580;2023-01-19T13:21:31;44.63;;;17.80;;
75261;SDS011;63859;51.064;4.580;2023-01-19T13:23:58;41.77;;;18.87;;
75261;SDS011;63859;51.064;4.580;2023-01-19T13:26:32;44.87;;;18.07;;
75261;SDS011;63859;51.064;4.580;2023-01-19T13:29:14;40.53;;;18.23;;
75261;SDS011;63859;51.064;4.580;2023-01-19T13:32:01;48.67;;;19.77;;
75261;SDS011;63859;51.064;4.580;2023-01-19T13:34:40;34.60;;;13.67;;
75261;SDS011;63859;51.064;4.580;2023-01-19T13:37:15;42.27;;;18.03;;
75261;SDS011;63859;51.064;4.580;2023-01-19T13:39:45;44.23;;;18.27;;
75261;SDS011;63859;51.064;4.580;2023-01-19T13:42:16;41.93;;;18.27;;
75261;SDS011;63859;51.064;4.580;2023-01-19T13:45:05;50.83;;;17.23;;
75261;SDS011;63859;51.064;4.580;2023-01-19T13:47:43;39.73;;;17.50;;
75261;SDS011;63859;51.064;4.580;2023-01-19T13:50:22;43.00;;;19.57;;
75261;SDS011;63859;51.064;4.580;2023-01-19T13:52:48;41.70;;;18.23;;
75261;SDS011;63859;51.064;4.580;2023-01-19T13:55:15;36.37;;;17.13;;
75261;SDS011;63859;51.064;4.580;2023-01-19T13:57:42;49.57;;;17.97;;
75261;SDS011;63859;51.064;4.580;2023-01-19T14:13:35;34.27;;;15.73;;
75261;SDS011;63859;51.064;4.580;2023-01-19T14:16:15;41.50;;;17.17;;
75261;SDS011;63859;51.064;4.580;2023-01-19T14:18:41;36.27;;;16.23;;
75261;SDS011;63859;51.064;4.580;2023-01-19T14:21:11;35.97;;;16.23;;
75261;SDS011;63859;51.064;4.580;2023-01-19T14:23:40;33.10;;;16.57;;
75261;SDS011;63859;51.064;4.580;2023-01-19T14:37:28;38.17;;;16.10;;
75261;SDS011;63859;51.064;4.580;2023-01-19T14:44:56;36.57;;;17.23;;
75261;SDS011;63859;51.064;4.580;2023-01-19T14:47:25;34.47;;;16.97;;
75261;SDS011;63859;51.064;4.580;2023-01-19T14:49:55;36.37;;;16.53;;
75261;SDS011;63859;51.064;4.580;2023-01-19T14:52:32;39.63;;;15.73;;
75261;SDS011;63859;51.064;4.580;2023-01-19T14:55:01;32.60;;;16.13;;
75261;SDS011;63859;51.064;4.580;2023-01-19T14:57:30;35.40;;;16.67;;
75261;SDS011;63859;51.064;4.580;2023-01-19T14:59:59;36.60;;;15.97;;
75261;SDS011;63859;51.064;4.580;2023-01-19T15:02:24;32.37;;;16.40;;
75261;SDS011;63859;51.064;4.580;2023-01-19T15:04:50;33.33;;;15.60;;
75261;SDS011;63859;51.064;4.580;2023-01-19T15:07:19;33.20;;;15.73;;
75261;SDS011;63859;51.064;4.580;2023-01-19T15:09:48;36.10;;;15.43;;
75261;SDS011;63859;51.064;4.580;2023-01-19T15:12:14;38.40;;;16.20;;
75261;SDS011;63859;51.064;4.580;2023-01-19T15:14:41;33.87;;;16.00;;
75261;SDS011;63859;51.064;4.580;2023-01-19T15:17:13;41.97;;;17.93;;
75261;SDS011;63859;51.064;4.580;2023-01-19T15:19:41;35.77;;;16.27;;
75261;SDS011;63859;51.064;4.580;2023-01-19T15:22:10;32.27;;;15.67;;
75261;SDS011;63859;51.064;4.580;2023-01-19T15:24:37;31.20;;;15.00;;
75261;SDS011;63859;51.064;4.580;2023-01-19T15:27:04;33.63;;;15.57;;
75261;SDS011;63859;51.064;4.580;2023-01-19T15:29:32;38.07;;;17.30;;
75261;SDS011;63859;51.064;4.580;2023-01-19T15:31:58;31.60;;;14.80;;
75261;SDS011;63859;51.064;4.580;2023-01-19T15:34:24;30.60;;;14.97;;
75261;SDS011;63859;51.064;4.580;2023-01-19T15:36:49;29.60;;;13.87;;
75261;SDS011;63859;51.064;4.580;2023-01-19T15:39:15;33.10;;;14.63;;
75261;SDS011;63859;51.064;4.580;2023-01-19T15:41:41;30.53;;;15.37;;
75261;SDS011;63859;51.064;4.580;2023-01-19T15:44:07;36.93;;;15.20;;
75261;SDS011;63859;51.064;4.580;2023-01-19T15:46:34;30.33;;;13.97;;
75261;SDS011;63859;51.064;4.580;2023-01-19T15:49:00;29.03;;;12.90;;